Time;durP1;ratioP1;P1;durP2;ratioP2;P2;SDS_P1;SDS_P2;PMS_P1;PMS_P2;Temp;Humidity;BMP_temperature;BMP_pressure;BME280_temperature;BME280_humidity;BME280_pressure;Samples;Min_cycle;Max_cycle;Signal;HPM_P1;HPM_P2
2024/04/04 00:01:10;;;;;;;0.50;0.10;;;14.90;99.90;;;15.45;56.82;100485.66;5989468;22;98034;-44
2024/04/04 00:03:37;;;;;;;0.97;0.40;;;14.90;99.90;;;15.45;56.11;100490.97;6028875;22;98098;-42
2024/04/04 00:06:04;;;;;;;0.40;0.23;;;14.90;99.90;;;15.41;56.96;100489.44;6027426;23;98088;-47
2024/04/04 00:08:31;;;;;;;0.13;0.10;;;14.80;99.90;;;15.41;56.98;100492.94;5921507;23;98421;-41
2024/04/04 00:11:10;;;;;;;2.60;0.43;;;14.90;99.90;;;15.41;56.75;100494.75;6005627;22;97987;-45
2024/04/04 00:13:38;;;;;;;0.23;0.10;;;14.90;99.90;;;15.41;56.64;100497.41;5931630;22;98876;-42
2024/04/04 00:16:05;;;;;;;0.93;0.30;;;14.90;99.90;;;15.43;56.71;100493.72;5997274;22;105896;-41
2024/04/04 00:18:35;;;;;;;0.83;0.20;;;14.90;99.90;;;15.42;56.91;100483.19;5984074;22;98577;-38
2024/04/04 00:21:04;;;;;;;0.37;0.20;;;14.90;99.90;;;15.44;56.78;100483.94;6030679;22;98343;-39
2024/04/04 00:23:32;;;;;;;1.50;0.10;;;15.00;99.90;;;15.51;56.98;100469.34;6035139;22;101186;-34
2024/04/04 00:26:01;;;;;;;0.20;0.10;;;15.10;99.90;;;15.55;56.67;100465.56;6030877;22;98041;-39
2024/04/04 00:28:27;;;;;;;1.23;0.20;;;15.20;99.90;;;15.57;56.28;100457.50;5929956;22;98994;-49
2024/04/04 00:30:53;;;;;;;1.87;0.50;;;15.20;99.90;;;15.59;56.10;100461.81;5945402;22;104471;-39
2024/04/04 00:33:22;;;;;;;1.57;0.40;;;15.20;99.90;;;15.58;55.48;100460.06;5959225;23;98297;-41
2024/04/04 00:36:04;;;;;;;;;;;;;;;;;;;;;
2024/04/04 00:38:30;;;;;;;1.20;0.50;;;15.20;99.90;;;15.68;56.46;100447.13;6035020;22;127703;-37
2024/04/04 00:40:56;;;;;;;0.70;0.20;;;15.30;99.90;;;15.72;56.37;100446.81;5960006;23;97795;-41
2024/04/04 00:43:24;;;;;;;1.03;0.30;;;15.40;99.90;;;15.75;56.01;100441.31;5958645;22;97993;-42
2024/04/04 00:45:53;;;;;;;0.73;0.40;;;15.40;99.90;;;15.76;55.76;100432.38;5945578;23;100621;-39
2024/04/04 00:48:19;;;;;;;2.73;0.40;;;15.50;99.90;;;15.83;55.95;100424.06;5981887;22;124356;-44
2024/04/04 00:50:45;;;;;;;2.10;0.53;;;15.50;99.90;;;15.83;55.38;100426.72;5998516;22;98969;-42
2024/04/04 00:53:20;;;;;;;1.33;0.27;;;15.50;99.90;;;15.88;55.84;100435.25;5980176;22;98906;-41
2024/04/04 00:55:48;;;;;;;0.93;0.13;;;15.60;99.90;;;15.90;55.74;100412.06;5976108;22;101884;-44
2024/04/04 00:58:17;;;;;;;0.50;0.30;;;15.60;99.90;;;15.92;54.28;100416.38;6018608;22;103704;-44
2024/04/04 01:00:45;;;;;;;0.73;0.10;;;15.60;99.90;;;16.01;55.40;100414.94;6036457;22;98600;-44
2024/04/04 01:03:11;;;;;;;0.43;0.20;;;15.80;99.90;;;15.99;55.01;100412.38;6039345;22;97453;-40
2024/04/04 01:05:37;;;;;;;0.37;0.20;;;15.80;99.90;;;15.98;55.00;100409.81;5994460;22;97348;-42
2024/04/04 01:08:05;;;;;;;0.73;0.30;;;15.70;99.90;;;15.94;53.05;100416.28;6007224;22;104988;-32
2024/04/04 01:10:31;;;;;;;0.70;0.40;;;15.70;99.90;;;15.98;55.51;100412.47;5954086;22;97789;-41
2024/04/04 01:12:57;;;;;;;0.53;0.30;;;15.70;99.90;;;15.96;54.05;100409.06;6051591;22;97473;-39
2024/04/04 01:15:23;;;;;;;0.17;0.13;;;15.70;99.90;;;15.77;52.58;100406.69;6015773;22;97967;-46
2024/04/04 01:17:49;;;;;;;2.27;0.20;;;15.60;99.90;;;15.83;55.44;100411.63;5958731;22;113724;-46
2024/04/04 01:20:15;;;;;;;0.70;0.27;;;15.50;99.90;;;15.80;54.53;100405.63;5985320;22;98075;-43
2024/04/04 01:22:40;;;;;;;0.67;0.20;;;15.50;99.90;;;15.83;55.48;100394.81;5987883;22;101260;-43
2024/04/04 01:25:07;;;;;;;0.17;0.13;;;15.60;99.90;;;15.87;54.45;100393.66;6027442;22;98293;-40
2024/04/04 01:27:35;;;;;;;1.20;0.50;;;15.60;99.90;;;15.96;55.24;100391.28;6007635;22;98172;-46
2024/04/04 01:30:01;;;;;;;2.57;0.40;;;15.80;99.90;;;16.05;55.31;100395.16;5987313;22;98109;-37
2024/04/04 01:32:27;;;;;;;0.50;0.20;;;15.90;99.90;;;16.11;55.27;100384.16;5962642;23;97091;-42
2024/04/04 01:34:59;;;;;;;1.63;0.30;;;16.00;99.90;;;16.22;54.93;100373.69;5999033;22;98954;-43
2024/04/04 01:37:27;;;;;;;0.60;0.17;;;16.10;99.90;;;16.32;54.46;100372.13;5987805;22;113245;-37
2024/04/04 01:39:53;;;;;;;1.30;0.27;;;16.30;99.90;;;16.38;54.08;100367.41;5996657;22;97209;-41
2024/04/04 01:42:18;;;;;;;0.57;0.20;;;16.40;99.90;;;16.47;53.99;100364.13;5907136;22;99577;-37
2024/04/04 01:44:44;;;;;;;0.37;0.20;;;16.50;99.90;;;16.52;54.13;100362.03;6000325;22;109277;-38
2024/04/04 01:47:10;;;;;;;1.87;0.30;;;16.60;99.90;;;16.48;53.64;100365.84;6044067;22;112934;-39
2024/04/04 01:49:42;;;;;;;0.93;0.20;;;16.50;99.90;;;16.49;53.79;100352.44;6037975;22;109929;-41
2024/04/04 01:52:13;;;;;;;0.73;0.47;;;16.40;99.90;;;16.49;53.99;100346.25;6016466;22;106074;-38
2024/04/04 01:54:39;;;;;;;1.13;0.30;;;16.40;99.90;;;16.50;53.63;100353.31;6007352;23;104474;-33
2024/04/04 01:57:05;;;;;;;1.47;0.33;;;16.40;99.90;;;16.54;53.81;100346.81;6045689;22;97572;-44
2024/04/04 01:59:30;;;;;;;0.37;0.20;;;16.50;99.90;;;16.60;53.54;100339.28;6053001;22;97649;-41
2024/04/04 02:01:56;;;;;;;0.60;0.13;;;16.60;99.90;;;16.61;53.49;100335.66;6034186;22;98408;-40
2024/04/04 02:04:22;;;;;;;1.00;0.20;;;16.60;99.90;;;16.55;52.96;100332.53;6064348;22;98313;-37
2024/04/04 02:06:48;;;;;;;0.77;0.27;;;16.50;99.90;;;16.53;53.63;100331.78;6037355;22;98060;-41
2024/04/04 02:09:13;;;;;;;0.37;0.20;;;16.40;99.90;;;16.52;53.73;100335.41;6024683;22;106010;-41
2024/04/04 02:11:40;;;;;;;1.20;0.30;;;16.40;99.90;;;16.50;53.68;100332.84;6021031;22;112141;-43
2024/04/04 02:14:09;;;;;;;0.60;0.20;;;16.40;99.90;;;16.56;53.82;100328.94;6012806;23;99054;-42
2024/04/04 02:16:39;;;;;;;0.50;0.20;;;16.50;99.90;;;16.53;53.72;100337.13;6006999;22;97341;-35
2024/04/04 02:19:05;;;;;;;1.30;0.20;;;16.40;99.90;;;16.49;53.75;100340.91;6055920;22;97314;-43
2024/04/04 02:21:31;;;;;;;0.20;0.17;;;16.40;99.90;;;16.47;53.88;100340.16;6048075;22;97438;-42
2024/04/04 02:24:00;;;;;;;1.17;0.40;;;16.30;99.90;;;16.49;53.76;100333.81;6028719;22;99281;-40
2024/04/04 02:26:33;;;;;;;0.10;0.10;;;16.40;99.90;;;16.51;53.96;100329.25;6056389;22;122012;-40
2024/04/04 02:28:59;;;;;;;0.50;0.20;;;16.40;99.90;;;16.52;53.69;100330.94;6050760;22;107233;-42
2024/04/04 02:31:25;;;;;;;1.70;0.30;;;16.40;99.90;;;16.49;53.08;100325.81;6066349;22;97763;-40
2024/04/04 02:33:52;;;;;;;0.50;0.40;;;16.40;99.90;;;16.46;53.55;100322.50;6021928;22;97438;-37
2024/04/04 02:36:18;;;;;;;0.60;0.30;;;16.30;99.90;;;16.43;52.48;100317.38;6047134;22;98851;-41
2024/04/04 02:38:44;;;;;;;0.83;0.23;;;16.30;99.90;;;16.48;54.19;100301.94;6058199;22;98840;-41
2024/04/04 02:41:09;;;;;;;0.43;0.20;;;16.40;99.90;;;16.53;53.84;100297.19;6054460;22;101480;-43
2024/04/04 02:43:38;;;;;;;0.47;0.27;;;16.50;99.90;;;16.58;53.68;100303.06;6011661;22;104044;-35
2024/04/04 02:46:05;;;;;;;0.20;0.10;;;16.60;99.90;;;16.59;53.49;100297.63;6039473;22;97672;-43
2024/04/04 02:48:31;;;;;;;0.53;0.20;;;16.60;99.90;;;16.52;52.50;100298.16;6025539;22;101107;-42
2024/04/04 02:51:00;;;;;;;0.70;0.33;;;16.50;99.90;;;16.50;54.07;100292.06;6035259;22;97307;-41
2024/04/04 02:53:26;;;;;;;1.37;0.20;;;16.40;99.90;;;16.51;53.85;100291.13;6061350;22;99875;-43
2024/04/04 02:56:00;;;;;;;0.60;0.30;;;16.40;99.90;;;16.51;53.37;100291.13;6047795;22;97611;-34
2024/04/04 02:58:26;;;;;;;1.50;0.30;;;16.40;99.90;;;16.48;53.51;100286.81;6043120;22;97194;-44
2024/04/04 03:00:53;;;;;;;1.30;0.50;;;16.40;99.90;;;16.45;54.11;100288.84;6028467;22;97472;-42
2024/04/04 03:03:19;;;;;;;0.70;0.30;;;16.30;99.90;;;16.41;54.18;100276.69;6050603;23;106671;-42
2024/04/04 03:05:45;;;;;;;0.20;0.20;;;16.20;99.90;;;16.42;54.15;100270.41;6036492;22;98875;-36
2024/04/04 03:08:15;;;;;;;0.73;0.10;;;16.20;99.90;;;16.43;53.94;100262.31;6040792;22;97718;-41
2024/04/04 03:10:42;;;;;;;0.40;0.30;;;16.30;99.90;;;16.37;53.98;100268.06;6015501;23;97712;-39
2024/04/04 03:13:08;;;;;;;0.57;0.30;;;16.20;99.90;;;16.38;54.31;100258.28;6045726;22;117658;-42
2024/04/04 03:15:34;;;;;;;0.87;0.27;;;16.20;99.90;;;16.42;54.07;100259.78;6019258;23;105565;-43
2024/04/04 03:18:00;;;;;;;0.73;0.30;;;16.30;99.90;;;16.41;54.43;100258.06;6053121;22;97740;-42
2024/04/04 03:20:26;;;;;;;0.33;0.20;;;16.20;99.90;;;16.41;54.34;100258.91;6000380;22;99438;-41
2024/04/04 03:22:52;;;;;;;2.33;0.33;;;16.20;99.90;;;16.44;54.09;100255.19;6063174;22;107204;-38
2024/04/04 03:25:17;;;;;;;0.17;0.17;;;16.30;99.90;;;16.42;54.43;100251.78;6035946;22;97775;-41
2024/04/04 03:27:43;;;;;;;0.40;0.30;;;16.30;99.90;;;16.42;54.45;100249.13;6070760;22;97808;-39
2024/04/04 03:30:10;;;;;;;0.30;0.20;;;16.30;99.90;;;16.48;54.03;100248.69;6031889;23;106236;-40
2024/04/04 03:32:37;;;;;;;0.20;0.20;;;16.40;99.90;;;16.50;54.08;100241.50;6044661;22;97866;-38
2024/04/04 03:35:05;;;;;;;1.20;0.33;;;16.50;99.90;;;16.59;53.90;100238.19;6048970;22;97842;-35
2024/04/04 03:37:36;;;;;;;1.97;0.30;;;16.60;99.90;;;16.64;53.91;100234.28;6044206;22;98758;-37
2024/04/04 03:40:06;;;;;;;0.30;0.20;;;16.70;99.90;;;16.72;53.52;100224.94;5999923;22;97226;-43
2024/04/04 03:42:32;;;;;;;1.07;0.30;;;16.80;99.90;;;16.77;53.40;100226.31;6041087;22;99071;-51
2024/04/04 03:44:57;;;;;;;0.30;0.20;;;16.90;99.90;;;16.81;53.17;100219.84;6041534;22;98035;-43
2024/04/04 03:47:23;;;;;;;0.40;0.30;;;17.00;99.90;;;16.88;53.03;100230.94;6051454;22;97775;-43
2024/04/04 03:49:49;;;;;;;2.73;0.20;;;17.00;99.90;;;16.89;53.01;100214.84;6041268;22;101384;-39
2024/04/04 03:52:17;;;;;;;1.23;0.27;;;17.00;99.90;;;16.91;53.18;100215.56;6059392;22;121639;-39
2024/04/04 03:54:43;;;;;;;0.27;0.23;;;17.00;99.90;;;16.91;52.95;100210.25;6031038;22;119395;-46
2024/04/04 03:57:12;;;;;;;2.27;0.50;;;17.00;99.90;;;16.90;53.08;100203.22;6054603;22;97497;-45
2024/04/04 03:59:38;;;;;;;0.80;0.30;;;17.00;99.90;;;16.91;53.11;100199.59;5998957;22;97551;-41
2024/04/04 04:02:03;;;;;;;1.03;0.30;;;17.00;99.90;;;16.94;52.81;100199.41;6022231;23;113574;-42
2024/04/04 04:04:29;;;;;;;0.50;0.10;;;17.00;99.90;;;16.94;52.94;100194.06;6032957;22;98309;-40
2024/04/04 04:06:57;;;;;;;0.53;0.20;;;17.00;99.90;;;16.94;52.89;100196.75;6050062;22;108793;-48
2024/04/04 04:09:23;;;;;;;0.40;0.40;;;17.00;99.90;;;16.95;52.87;100193.13;6053632;22;97489;-42
2024/04/04 04:11:49;;;;;;;0.37;0.10;;;17.00;99.90;;;16.93;53.01;100197.72;6012451;22;127581;-31
2024/04/04 04:14:16;;;;;;;0.50;0.40;;;17.00;99.90;;;16.95;52.84;100195.78;6046062;22;97892;-35
2024/04/04 04:16:42;;;;;;;0.83;0.10;;;17.00;99.90;;;16.94;53.05;100199.41;6067582;22;112453;-34
2024/04/04 04:19:08;;;;;;;1.27;0.80;;;17.00;99.90;;;16.89;53.30;100196.19;6028694;22;97427;-36
2024/04/04 04:21:34;;;;;;;0.77;0.30;;;16.90;99.90;;;16.89;53.03;100198.84;6042539;22;119569;-37
2024/04/04 04:24:01;;;;;;;0.93;0.60;;;16.90;99.90;;;16.92;53.29;100190.69;6051301;22;125229;-34
2024/04/04 04:26:30;;;;;;;1.30;1.07;;;17.00;99.90;;;16.89;53.06;100190.88;6043863;22;97568;-45
2024/04/04 04:28:56;;;;;;;0.63;0.30;;;16.90;99.90;;;16.92;53.12;100185.34;6068855;22;98946;-39
2024/04/04 04:31:30;;;;;;;1.13;0.30;;;17.00;99.90;;;16.94;53.12;100177.25;6085705;22;98412;-41
2024/04/04 04:33:58;;;;;;;0.40;0.27;;;17.10;99.90;;;16.92;53.22;100176.47;6050548;22;99060;-43
2024/04/04 04:36:27;;;;;;;0.87;0.20;;;17.00;99.90;;;16.95;52.98;100176.28;6057427;22;97676;-39
2024/04/04 04:38:53;;;;;;;0.93;0.47;;;17.00;99.90;;;16.97;52.82;100170.84;6024140;23;96988;-35
2024/04/04 04:41:25;;;;;;;0.40;0.30;;;17.10;99.90;;;16.98;53.13;100159.22;6019932;23;98443;-37
2024/04/04 04:43:53;;;;;;;0.40;0.30;;;17.10;99.90;;;17.00;53.14;100160.81;6011959;22;99496;-35
2024/04/04 04:46:20;;;;;;;0.40;0.27;;;17.20;99.90;;;17.00;52.90;100155.50;6014652;23;97190;-35
2024/04/04 04:48:51;;;;;;;1.10;0.40;;;17.20;99.90;;;17.02;53.15;100163.38;5946545;22;97692;-43
2024/04/04 04:51:22;;;;;;;0.40;0.30;;;17.20;99.90;;;17.02;53.05;100158.03;5967519;22;121966;-41
2024/04/04 04:53:57;;;;;;;0.20;0.20;;;17.20;99.90;;;17.04;53.04;100156.13;6031187;22;97564;-43
2024/04/04 04:56:41;;;;;;;0.30;0.20;;;17.10;99.90;;;17.01;53.06;100143.03;5818243;22;97255;-36
2024/04/04 04:59:07;;;;;;;1.67;0.43;;;17.20;99.90;;;17.02;53.14;100137.59;5743208;22;98289;-39
2024/04/04 05:02:09;;;;;;;0.63;0.27;;;17.20;99.90;;;17.00;53.55;100142.16;5877855;23;100098;-38
2024/04/04 05:04:38;;;;;;;0.80;0.50;;;17.10;99.90;;;16.88;54.19;100137.69;5992499;23;105475;-41
2024/04/04 05:07:03;;;;;;;0.67;0.37;;;17.00;99.90;;;16.87;53.90;100142.19;6063075;22;97494;-37
2024/04/04 05:09:32;;;;;;;2.10;0.40;;;16.90;99.90;;;16.83;53.96;100127.38;6082938;22;100262;-42
2024/04/04 05:11:58;;;;;;;0.63;0.40;;;16.80;99.90;;;16.84;53.64;100129.06;6005749;23;99838;-42
2024/04/04 05:14:24;;;;;;;1.63;0.50;;;16.80;99.90;;;16.75;54.25;100119.06;6053896;22;98579;-41
2024/04/04 05:16:51;;;;;;;1.23;0.43;;;16.80;99.90;;;16.75;54.04;100108.41;6070925;22;101563;-43
2024/04/04 05:19:17;;;;;;;0.20;0.20;;;16.80;99.90;;;16.67;55.26;100116.09;6072745;22;97147;-42
2024/04/04 05:21:46;;;;;;;1.03;0.40;;;16.70;99.90;;;16.70;54.09;100110.53;6072559;22;107233;-43
2024/04/04 05:24:12;;;;;;;0.40;0.30;;;16.70;99.90;;;16.68;54.24;100101.81;6085987;22;119046;-42
2024/04/04 05:26:37;;;;;;;1.03;0.50;;;16.70;99.90;;;16.70;54.24;100107.03;6044001;22;103799;-35
2024/04/04 05:29:04;;;;;;;2.43;0.53;;;16.70;99.90;;;16.69;54.59;100098.19;6023023;22;97814;-36
2024/04/04 05:31:30;;;;;;;0.40;0.30;;;16.70;99.90;;;16.61;55.07;100097.81;6065823;22;97199;-37
2024/04/04 05:33:59;;;;;;;0.77;0.23;;;16.60;99.90;;;16.64;55.06;100097.63;6035359;22;113156;-43
2024/04/04 05:36:27;;;;;;;0.90;0.50;;;16.60;99.90;;;16.60;55.71;100101.44;6038128;22;97114;-43
2024/04/04 05:38:56;;;;;;;0.77;0.50;;;16.60;99.90;;;16.62;54.39;100094.19;6038026;22;100179;-37
2024/04/04 05:41:21;;;;;;;1.03;0.40;;;16.60;99.90;;;16.64;54.58;100098.47;6046390;22;98440;-43
2024/04/04 05:43:47;;;;;;;4.07;0.60;;;16.60;99.90;;;16.66;54.43;100098.38;6046531;22;123607;-42
2024/04/04 05:46:13;;;;;;;1.13;0.30;;;16.70;99.90;;;16.70;54.15;100091.06;6049538;22;99916;-41
2024/04/04 05:48:39;;;;;;;0.87;0.50;;;16.70;99.90;;;16.71;54.98;100090.94;6062999;22;103927;-41
2024/04/04 05:51:05;;;;;;;0.63;0.20;;;16.70;99.90;;;16.71;54.17;100090.94;6059532;22;98563;-43
2024/04/04 05:53:31;;;;;;;1.90;0.20;;;16.70;99.90;;;16.72;54.70;100084.66;6027305;23;98498;-43
2024/04/04 05:55:57;;;;;;;0.70;0.30;;;16.80;99.90;;;16.72;54.53;100092.66;6049499;22;97478;-39
2024/04/04 05:58:23;;;;;;;1.43;0.50;;;16.70;99.90;;;16.72;55.63;100087.31;6050911;22;100676;-38
2024/04/04 06:00:49;;;;;;;0.10;0.10;;;16.70;99.90;;;16.73;54.31;100083.69;5986969;23;97950;-40
2024/04/04 06:03:15;;;;;;;1.40;0.30;;;16.70;99.90;;;16.74;54.54;100076.56;6015091;22;97698;-43
2024/04/04 06:05:44;;;;;;;0.43;0.23;;;16.70;99.90;;;16.75;54.09;100076.44;6055820;22;97083;-42
2024/04/04 06:08:10;;;;;;;1.43;0.20;;;16.80;99.90;;;16.71;55.66;100071.44;5992391;22;97706;-38
2024/04/04 06:10:36;;;;;;;0.40;0.30;;;16.70;99.90;;;16.65;55.19;100073.56;6055228;22;100166;-45
2024/04/04 06:13:03;;;;;;;0.60;0.40;;;16.60;99.90;;;16.61;56.07;100077.38;6080959;22;97945;-44
2024/04/04 06:15:31;;;;;;;0.93;0.40;;;16.60;99.90;;;16.60;55.94;100072.16;6015538;23;97785;-42
2024/04/04 06:17:59;;;;;;;0.60;0.33;;;16.50;99.90;;;16.59;55.04;100079.28;6032941;22;97382;-40
2024/04/04 06:20:25;;;;;;;0.97;0.27;;;16.50;99.90;;;16.53;57.93;100070.91;6039258;22;111732;-41
2024/04/04 06:22:53;;;;;;;1.23;0.30;;;16.50;99.90;;;16.52;58.80;100061.22;6066777;22;107010;-41
2024/04/04 06:25:19;;;;;;;0.20;0.20;;;16.40;99.90;;;16.49;56.44;100069.38;6012791;23;97786;-40
2024/04/04 06:27:53;;;;;;;0.20;0.20;;;16.40;99.90;;;16.48;58.81;100062.34;6064859;22;104066;-40
2024/04/04 06:30:19;;;;;;;2.00;0.20;;;16.40;99.90;;;16.50;58.98;100060.47;5991177;22;102915;-46
2024/04/04 06:32:45;;;;;;;0.10;0.10;;;16.40;99.90;;;16.46;57.50;100058.97;6073543;22;97522;-43
2024/04/04 06:35:14;;;;;;;0.50;0.30;;;16.40;99.90;;;16.39;57.51;100060.34;6048974;22;97944;-37
2024/04/04 06:38:39;;;;;;;1.60;0.40;;;16.30;99.90;;;16.35;61.50;100052.59;5941841;23;98064;-32
2024/04/04 06:41:27;;;;;;;0.73;0.20;;;16.20;99.90;;;16.41;58.67;100045.13;5445889;22;102067;-34
2024/04/04 06:44:01;;;;;;;1.50;0.50;;;16.40;99.90;;;16.29;61.74;100047.66;5647439;23;135536;-35
2024/04/04 06:46:40;;;;;;;1.00;0.40;;;16.30;99.90;;;16.32;61.44;100042.13;5569012;23;100175;-41
2024/04/04 06:49:49;;;;;;;2.13;0.40;;;16.20;99.90;;;16.27;62.70;100041.59;5565619;23;102242;-37
2024/04/04 06:52:54;;;;;;;1.20;0.20;;;16.20;99.90;;;16.36;57.07;100038.31;4694415;24;5013511;-36
2024/04/04 06:56:01;;;;;;;1.70;0.50;;;16.30;99.90;;;16.42;60.03;100042.34;5039030;24;4078206;-46
2024/04/04 08:19:07;;;;;;;1.10;0.40;;;16.10;99.90;;;15.85;67.72;100073.78;6007608;22;1864851;-37
2024/04/04 08:21:37;;;;;;;4.17;0.47;;;15.90;99.90;;;15.67;69.56;100092.66;6010379;22;97962;-35
2024/04/04 08:24:06;;;;;;;2.17;0.30;;;15.80;99.90;;;15.74;61.60;100088.63;5935259;22;97437;-38
2024/04/04 08:26:35;;;;;;;1.67;0.30;;;15.70;99.90;;;15.74;64.71;100093.09;5882388;23;98216;-38
2024/04/04 08:29:02;;;;;;;0.40;0.10;;;15.80;99.90;;;15.65;64.50;100088.41;5945528;22;98465;-39
2024/04/04 08:31:37;;;;;;;1.50;0.27;;;15.70;99.90;;;15.80;63.91;100075.91;5919283;22;99459;-34
2024/04/04 08:34:15;;;;;;;2.23;0.10;;;15.80;99.90;;;15.87;66.56;100074.53;5955644;22;100093;-38
2024/04/04 08:36:42;;;;;;;0.73;0.27;;;15.90;99.90;;;15.86;64.28;100032.94;5883725;22;100634;-36
2024/04/04 08:39:09;;;;;;;0.30;0.20;;;15.90;99.90;;;15.94;65.59;100031.47;5861099;22;98230;-44
2024/04/04 08:41:44;;;;;;;3.20;0.30;;;15.90;99.90;;;15.88;66.66;100036.31;5988824;22;100290;-36
2024/04/04 08:44:12;;;;;;;0.20;0.10;;;15.90;99.90;;;15.70;68.42;100065.84;5882707;22;100766;-37
2024/04/04 08:46:50;;;;;;;2.30;0.47;;;15.70;99.90;;;15.77;65.44;100058.34;6041051;22;98983;-37
2024/04/04 08:49:20;;;;;;;1.20;0.27;;;15.70;99.90;;;15.65;68.93;100083.94;5917292;22;99787;-41
2024/04/04 08:51:51;;;;;;;1.23;0.20;;;15.60;99.90;;;15.57;67.53;100102.13;5870440;23;97907;-36
2024/04/04 08:54:20;;;;;;;0.97;0.17;;;15.60;99.90;;;15.50;68.29;100110.63;5870332;22;100768;-39
2024/04/04 08:56:53;;;;;;;0.37;0.20;;;15.50;99.90;;;15.47;68.42;100112.50;5902834;22;102339;-38
2024/04/04 08:59:22;;;;;;;0.93;0.40;;;15.50;99.90;;;15.48;68.88;100124.00;5953417;22;97963;-37
2024/04/04 09:01:54;;;;;;;0.60;0.47;;;15.50;99.90;;;15.52;67.48;100119.34;5960129;22;97714;-38
2024/04/04 09:04:31;;;;;;;0.37;0.27;;;15.50;99.90;;;15.48;67.55;100126.69;5937496;22;99396;-37
2024/04/04 09:07:00;;;;;;;0.30;0.30;;;15.50;99.90;;;15.46;66.52;100131.22;5951907;22;101553;-38
2024/04/04 09:09:34;;;;;;;0.70;0.30;;;15.40;99.90;;;15.33;68.03;100140.91;5924962;23;102682;-37
2024/04/04 09:12:16;;;;;;;1.17;0.20;;;15.40;99.90;;;15.33;69.17;100156.84;5861940;22;98423;-36
2024/04/04 09:15:09;;;;;;;0.53;0.20;;;15.40;99.90;;;15.34;68.94;100158.59;5921139;22;97731;-34
2024/04/04 09:17:36;;;;;;;0.47;0.13;;;15.30;99.90;;;15.36;68.86;100167.31;5873460;22;103618;-36
2024/04/04 09:20:05;;;;;;;0.47;0.20;;;15.40;99.90;;;15.40;68.06;100161.69;6053844;22;99215;-38
2024/04/04 09:22:31;;;;;;;0.77;0.20;;;15.30;99.90;;;15.48;64.87;100161.22;6063751;22;99220;-37
2024/04/04 09:24:58;;;;;;;3.00;0.20;;;15.50;99.90;;;15.59;63.95;100163.19;6041048;22;97182;-34
2024/04/04 09:27:23;;;;;;;0.20;0.10;;;15.60;99.90;;;15.46;67.55;100171.06;5996776;22;102253;-36
2024/04/04 09:29:54;;;;;;;1.13;0.10;;;15.60;99.90;;;15.59;63.44;100161.41;5990649;22;98089;-37
2024/04/04 09:32:20;;;;;;;0.63;0.20;;;15.60;99.90;;;15.63;66.73;100181.53;5997697;22;97763;-39
2024/04/04 09:34:47;;;;;;;0.63;0.30;;;15.60;99.90;;;15.76;61.89;100176.25;6024911;22;97323;-39
2024/04/04 09:37:13;;;;;;;0.20;0.10;;;15.70;99.90;;;15.71;63.72;100168.59;6014449;22;101137;-37
2024/04/04 09:39:43;;;;;;;0.43;0.10;;;15.70;99.90;;;15.84;67.16;100183.75;6036440;22;98604;-37
2024/04/04 09:42:10;;;;;;;0.20;0.10;;;15.80;99.90;;;15.84;63.48;100183.75;6018704;22;97853;-37
2024/04/04 09:44:36;;;;;;;0.27;0.03;;;15.90;99.90;;;15.80;67.15;100191.09;6026395;22;97448;-38
2024/04/04 09:47:04;;;;;;;0.57;0.27;;;15.80;99.90;;;15.90;65.96;100183.34;5982010;22;117864;-36
2024/04/04 09:49:32;;;;;;;1.20;0.33;;;15.90;99.90;;;15.86;66.14;100192.50;5983132;22;98918;-37
2024/04/04 09:52:03;;;;;;;0.57;0.23;;;15.90;99.90;;;15.95;65.49;100183.91;6033753;22;100839;-37
2024/04/04 09:54:30;;;;;;;0.70;0.20;;;16.00;99.90;;;15.98;60.75;100197.00;6048062;22;98155;-44
2024/04/04 09:56:59;;;;;;;0.60;0.30;;;15.90;99.90;;;16.02;64.89;100196.69;6033839;22;99215;-42
2024/04/04 09:59:30;;;;;;;0.10;0.00;;;16.10;99.90;;;16.01;63.92;100207.44;6045597;22;101436;-42
2024/04/04 10:02:03;;;;;;;0.47;0.13;;;16.10;99.90;;;16.18;60.60;100201.88;6012488;22;97452;-48
2024/04/04 10:04:36;;;;;;;0.87;0.10;;;16.20;99.90;;;16.15;64.70;100204.75;6065598;22;97310;-41
2024/04/04 10:07:03;;;;;;;0.40;0.10;;;16.20;99.90;;;16.26;59.83;100207.56;6060846;22;103216;-43
2024/04/04 10:09:40;;;;;;;0.47;0.10;;;16.30;99.90;;;16.28;59.25;100205.63;5969762;22;100905;-45
2024/04/04 10:12:13;;;;;;;0.00;0.00;;;16.40;99.90;;;16.26;62.35;100220.84;6037990;22;98738;-43
2024/04/04 10:14:50;;;;;;;1.30;0.00;;;16.40;99.90;;;16.29;60.78;100217.13;6039390;22;98109;-40
2024/04/04 10:17:16;;;;;;;1.77;0.40;;;16.40;99.90;;;16.29;62.78;100217.13;6086112;22;99308;-42
2024/04/04 10:19:46;;;;;;;0.33;0.10;;;16.40;99.90;;;16.41;60.71;100220.78;6091840;22;106576;-45
2024/04/04 10:22:17;;;;;;;0.13;0.10;;;16.50;99.90;;;16.31;61.91;100210.75;6115987;22;97297;-42
2024/04/04 10:24:46;;;;;;;3.47;0.17;;;16.40;99.90;;;16.22;62.24;100216.69;6105637;22;110179;-39
2024/04/04 10:27:13;;;;;;;0.20;0.20;;;16.40;99.90;;;16.18;61.10;100209.00;6115453;22;110758;-43
2024/04/04 10:29:38;;;;;;;0.40;0.17;;;16.30;99.90;;;16.10;60.80;100212.19;6121073;22;98355;-40
2024/04/04 10:32:06;;;;;;;0.07;0.07;;;16.30;99.90;;;16.15;59.79;100219.84;6104824;22;97344;-42
2024/04/04 10:34:33;;;;;;;0.57;0.20;;;16.30;99.90;;;16.03;60.71;100221.50;6100836;22;109024;-42
2024/04/04 10:37:03;;;;;;;0.30;0.30;;;16.20;99.90;;;16.07;60.09;100223.03;6122813;22;103557;-42
2024/04/04 10:39:29;;;;;;;1.00;0.40;;;16.20;99.90;;;16.12;60.41;100215.59;6119283;22;102543;-41
2024/04/04 10:41:59;;;;;;;2.07;0.30;;;16.20;99.90;;;16.14;59.99;100224.31;6130665;22;97716;-45
2024/04/04 10:44:26;;;;;;;1.77;0.20;;;16.20;99.90;;;16.24;59.87;100230.75;6128495;22;97434;-42
2024/04/04 10:46:54;;;;;;;3.10;0.30;;;16.30;99.90;;;16.31;58.89;100245.34;6105858;22;97938;-41
2024/04/04 10:49:27;;;;;;;0.50;0.30;;;16.40;99.90;;;16.25;59.78;100243.09;6125424;22;99351;-42
2024/04/04 10:52:01;;;;;;;1.37;0.40;;;16.40;99.90;;;16.13;61.11;100238.56;6107716;22;97874;-40
2024/04/04 10:54:29;;;;;;;3.53;0.37;;;16.30;99.90;;;16.12;59.53;100236.88;6058370;22;104399;-41
2024/04/04 10:56:55;;;;;;;0.17;0.10;;;16.20;99.90;;;16.16;59.42;100237.53;6122610;22;102012;-44
2024/04/04 10:59:21;;;;;;;2.17;0.53;;;16.30;99.90;;;16.22;59.18;100240.66;6069872;22;99066;-41
2024/04/04 11:01:48;;;;;;;0.97;0.40;;;16.40;99.90;;;16.24;59.06;100246.72;6115451;22;100325;-44
2024/04/04 11:04:16;;;;;;;0.90;0.20;;;16.40;99.90;;;16.24;59.68;100236.06;6091313;22;97873;-35
2024/04/04 11:06:43;;;;;;;1.53;0.30;;;16.40;99.90;;;16.29;59.58;100246.41;6118303;22;102031;-35
2024/04/04 11:09:15;;;;;;;0.87;0.20;;;16.40;99.90;;;16.24;60.42;100261.84;6101901;22;97921;-35
2024/04/04 11:11:53;;;;;;;0.20;0.20;;;16.40;99.90;;;16.30;59.26;100248.97;6119907;22;96927;-34
2024/04/04 11:14:25;;;;;;;2.60;0.20;;;16.40;99.90;;;16.32;59.82;100244.38;6133316;22;97990;-36
2024/04/04 11:16:55;;;;;;;0.27;0.20;;;16.50;99.90;;;16.19;58.96;100250.63;6102529;22;98047;-34
2024/04/04 11:19:23;;;;;;;0.43;0.30;;;16.40;99.90;;;16.16;60.10;100254.34;6110078;22;98972;-36
2024/04/04 11:21:50;;;;;;;0.63;0.30;;;16.40;99.90;;;16.11;59.47;100255.59;6129868;22;97442;-34
2024/04/04 11:24:21;;;;;;;0.17;0.10;;;16.30;99.90;;;16.12;59.14;100263.47;6102259;22;97382;-38
2024/04/04 11:26:48;;;;;;;1.27;0.30;;;16.30;99.90;;;16.17;59.21;100261.38;6092032;22;99804;-36
2024/04/04 11:29:14;;;;;;;2.00;0.20;;;16.40;99.90;;;16.17;59.71;100265.84;6118318;22;98212;-34
2024/04/04 11:31:39;;;;;;;1.90;0.40;;;16.30;99.90;;;16.17;60.53;100272.00;6119120;22;97612;-36
2024/04/04 11:34:07;;;;;;;2.20;0.10;;;16.40;99.90;;;16.07;59.75;100281.56;6105988;22;97438;-35
2024/04/04 11:36:33;;;;;;;0.60;0.20;;;16.30;99.90;;;16.01;58.05;100274.81;6117549;22;99285;-35
2024/04/04 11:38:59;;;;;;;0.20;0.00;;;16.20;99.90;;;15.97;58.31;100269.78;6105299;22;99289;-34
2024/04/04 11:41:25;;;;;;;0.93;0.17;;;16.20;99.90;;;15.96;57.92;100278.72;6136331;22;97241;-34